Share

Aulander, NC

2:50 PM EDT on April 24, 2014 (GMT -0400)
Nowell Farm Road (KNCCOLER2) Elev 75 ft | 36.19 °N, 76.82 °W | Change Station

Current weather conditions updated 1 second ago

Clear
Clear
67.3 °F
Feels Like 67.3 °F
N
4.9
Wind Variable Wind from SSW
Gusts 7.4 mph
Sunrise 6:23 AM
Sunset 7:49 PM
Moon Waning Crescent

Today is forecast to be nearly the same temperature as yesterday.

Pressure 30.06 in
Visibility 10.0 miles
Clouds Clear
Dew Point 20 °F
Humidity 16%
Rainfall 0.00 in
Snow Depth Not available.
UV 10 out of 16
Pollen 9.60 out of 12
Air Quality Not available.
Flu Activity Local Activity
METAR KASJ 241835Z AUTO 00000KT 10SM CLR 18/M02 A3006 RMK AO2 T01821016

More Conditions Fewer Conditions

Pressure 30.06 in
Visibility 10.0 miles
Clouds Clear
Dew Point 20 °F
Humidity 16%
Rainfall 0.00 in
Snow Depth Not available.
UV 10 out of 16
Pollen 9.60 out of 12
Air Quality Not available.
Flu Activity Local Activity
METAR KASJ 241835Z AUTO 00000KT 10SM CLR 18/M02 A3006 RMK AO2 T01821016

More Conditions Fewer Conditions

10-Day Weather Forecast

Almanac

Astronomy

Apr. 24, 2014 Rise Set
Actual Time 6:23 AM EDT 7:49 PM EDT
Civil Twilight 5:56 AM EDT 8:16 PM EDT
Nautical Twilight 5:24 AM EDT 8:49 PM EDT
Astronomical Twilight 4:50 AM EDT 9:23 PM EDT
Moon 3:23 AM EDT 3:11 PM EDT
Length of Visible Light 14h 20m
Length of Day
13h 26m
Tomorrow will be 2m 3s longer.
Waning Crescent, 23% of the Moon is Illuminated
Today
Waning Crescent
Apr 29
New
May 6
First Quarter
May 14
Full
May 21
Last Quarter

Today's Extremes

State Highs State Lows

Community

  • Sunset at Apalachicola Bay, Florida
    Sunset at Apalachicola Bay, Florida
  • Clouds mov'n in
    Clouds mov'n in
  • Stacked
    Stacked
  • clouds approaching Red Sox Nation
    clouds approaching Red Sox Nation
  • Balance
    Balance

WunderPhotos

Upload Photos

1,704,688 photos uploaded!

Nearby

Snow Depth

Station Depth Elevation
No new snow has been reported.

Coastal Water Temperatures

Place Temperature
Oregon Inlet Marina, NC 55.9 °F
Duck Pier, NC 53.1 °F
Hatteras, NC 61.0 °F
Money Point, VA 57.9 °F
Sewells Point, VA 57.9 °F
Chesapeake Bay Bridge Tunnel, VA 55.0 °F

Earthquake Activity

City Distance Mag. Time & Date
No recent earthquake activity has been reported nearby.
Minimum magnitude displayed is 2.5.

Nearby Weather Stations

Station Location Temp. Dew Point Humidity Wind Precip. Elev Updated Type
RAWS GREENS CROSS NC, Windsor, NC 68 °F 24 °F 19% WSW  at  4 mph 0.00 in / hr 41 ft 1:17 PM EDT MADIS
Nowell Farm Road, Colerain, NC 67.3 °F 20 °F 16% SSW  at  4.9 mph 0.00 in / hr 75 ft 2:50 PM EDT Rapid Fire
Ashley's Grove, Conway, NC 66.9 °F 37 °F 33% NNW  at  6.0 mph 0.00 in / hr 65 ft 2:50 PM EDT Rapid Fire

Show More Stations Show Fewer Stations

What do you think?

We're not finished. Please let us know what you like, what you don't like, and what you are still missing.